Chester, Vermont
Current Conditions -  °F | °C
As of 2:54 AM on Saturday 20 Dec 2014 (Local Time) from KVSF Reporting Station
Clear Clear  
Wind Chill: 13°   Ceiling: Unl
Heat Index: 21°   Visibility: 10mi
Dew Point: 14°   Wind: 6mph
Humidity: 74%   Direction: NA
Pressure: 30.21"   Gusts: NA
Location:  43.26°N, 72.6°W
Report Text: KVSF 200754Z AUTO VRB05KT 10SM CLR M06/M10 A3021 RMK AO2 SLP240 T10611100 TSNO
Loading
Personal Weather Stations






























Interactive Weather Map New forecast layout! Learn more

10-Day Weather Forecast

Advertisements
Track Severe Weather on mobile